Time;durP1;ratioP1;P1;durP2;ratioP2;P2;SDS_P1;SDS_P2;PMS_P1;PMS_P2;Temp;Humidity;BMP_temperature;BMP_pressure;BME280_temperature;BME280_humidity;BME280_pressure;Samples;Min_cycle;Max_cycle;Signal;HPM_P1;HPM_P2
2022/02/07 00:00:25;;;;;;;4.43;1.10;;;;;;;;;;6224555;28;20053;-83
2022/02/07 00:03:45;;;;;;;1.48;1.00;;;;;;;;;;6223000;28;20041;-83
2022/02/07 00:06:47;;;;;;;4.38;1.70;;;;;;;;;;6233932;28;20126;-84
2022/02/07 00:09:48;;;;;;;1.75;1.30;;;;;;;;;;6236280;28;20124;-85
2022/02/07 00:12:50;;;;;;;3.70;1.00;;;;;;;;;;6227709;28;20061;-84
2022/02/07 00:15:52;;;;;;;5.75;1.98;;;;;;;;;;6221366;28;20056;-84
2022/02/07 00:18:53;;;;;;;4.63;1.30;;;;;;;;;;6222756;28;20038;-84
2022/02/07 00:21:57;;;;;;;6.93;1.77;;;;;;;;;;6223237;28;20070;-85
2022/02/07 00:24:59;;;;;;;4.85;1.42;;;;;;;;;;6210959;28;20041;-86
2022/02/07 00:28:01;;;;;;;5.40;1.40;;;;;;;;;;6223562;28;20100;-86
2022/02/07 00:31:03;;;;;;;5.80;2.40;;;;;;;;;;6244918;28;20195;-85
2022/02/07 00:34:05;;;;;;;3.38;1.30;;;;;;;;;;6254711;28;20436;-85
2022/02/07 00:37:07;;;;;;;3.40;1.30;;;;;;;;;;6228033;28;20097;-85
2022/02/07 00:46:33;;;;;;;2.20;0.75;;;;;;;;;;6229795;28;20049;-85
2022/02/07 00:49:34;;;;;;;3.03;0.73;;;;;;;;;;6247753;28;20124;-83
2022/02/07 00:52:36;;;;;;;1.08;0.45;;;;;;;;;;6245498;28;20069;-85
2022/02/07 00:55:38;;;;;;;1.48;0.32;;;;;;;;;;6212938;28;20117;-84
2022/02/07 00:58:40;;;;;;;2.63;0.73;;;;;;;;;;6220598;28;20056;-84
2022/02/07 01:01:45;;;;;;;1.10;0.50;;;;;;;;;;6231030;28;20069;-83
2022/02/07 01:04:48;;;;;;;0.80;0.28;;;;;;;;;;6233815;28;20141;-82
2022/02/07 01:07:51;;;;;;;2.03;0.57;;;;;;;;;;6249659;28;20045;-80
2022/02/07 01:11:17;;;;;;;0.60;0.22;;;;;;;;;;6240676;28;20587;-81
2022/02/07 01:14:51;;;;;;;1.30;0.40;;;;;;;;;;6222742;28;20081;-82
2022/02/07 01:55:07;;;;;;;4.70;0.80;;;;;;;;;;6244874;28;20061;-83
2022/02/07 01:58:11;;;;;;;1.73;0.60;;;;;;;;;;6244887;28;20049;-84
2022/02/07 02:01:12;;;;;;;1.65;0.80;;;;;;;;;;6226178;28;20061;-82
2022/02/07 02:04:14;;;;;;;2.35;0.90;;;;;;;;;;6195596;28;20046;-82
2022/02/07 02:07:19;;;;;;;3.10;1.00;;;;;;;;;;6210944;28;20082;-82
2022/02/07 02:10:21;;;;;;;6.35;0.98;;;;;;;;;;6211767;28;20147;-82
2022/02/07 02:13:38;;;;;;;2.08;0.90;;;;;;;;;;6202650;28;20056;-83
2022/02/07 02:46:38;;;;;;;4.90;1.30;;;;;;;;;;6218885;28;20026;-79
2022/02/07 02:49:49;;;;;;;5.82;1.70;;;;;;;;;;6240072;28;20064;-79
2022/02/07 02:52:50;;;;;;;5.68;1.30;;;;;;;;;;6228419;28;20041;-85
2022/02/07 02:55:53;;;;;;;7.45;1.70;;;;;;;;;;6220651;28;20048;-83
2022/02/07 02:59:04;;;;;;;9.30;1.80;;;;;;;;;;6227445;28;20048;-83
2022/02/07 03:02:09;;;;;;;10.88;2.20;;;;;;;;;;6240627;28;20046;-83
2022/02/07 03:05:11;;;;;;;10.15;2.17;;;;;;;;;;6242062;28;20091;-84
2022/02/07 03:08:14;;;;;;;5.40;2.00;;;;;;;;;;6240337;28;20506;-81
2022/02/07 03:11:19;;;;;;;4.40;1.60;;;;;;;;;;6241634;28;20045;-83
2022/02/07 03:14:35;;;;;;;12.00;2.45;;;;;;;;;;6242552;28;20537;-81
2022/02/07 03:17:41;;;;;;;5.38;1.58;;;;;;;;;;6224102;28;20046;-80
2022/02/07 03:20:43;;;;;;;6.60;2.13;;;;;;;;;;6241867;28;20632;-83
2022/02/07 03:23:44;;;;;;;7.78;1.95;;;;;;;;;;6257662;28;20041;-84
2022/02/07 03:26:46;;;;;;;8.25;2.20;;;;;;;;;;6251414;28;20507;-81
2022/02/07 03:30:01;;;;;;;6.95;1.73;;;;;;;;;;6248764;28;20128;-83
2022/02/07 03:33:15;;;;;;;3.63;1.48;;;;;;;;;;6218032;28;20046;-82
2022/02/07 03:36:19;;;;;;;5.90;2.28;;;;;;;;;;6217072;28;20045;-82
2022/02/07 03:39:21;;;;;;;7.28;1.92;;;;;;;;;;6226396;28;20038;-82
2022/02/07 03:42:23;;;;;;;5.43;1.80;;;;;;;;;;6217803;28;20602;-83
2022/02/07 03:45:45;;;;;;;8.30;2.05;;;;;;;;;;6236215;28;20057;-82
2022/02/07 03:48:50;;;;;;;8.13;2.25;;;;;;;;;;6244234;28;20042;-85
2022/02/07 03:51:55;;;;;;;6.88;2.67;;;;;;;;;;6244647;28;20119;-84
2022/02/07 03:54:57;;;;;;;9.55;2.08;;;;;;;;;;6229184;28;20045;-83
2022/02/07 03:57:59;;;;;;;6.40;2.33;;;;;;;;;;6224494;28;20052;-84
2022/02/07 04:01:01;;;;;;;6.80;2.20;;;;;;;;;;6230449;28;20042;-84
2022/02/07 04:04:19;;;;;;;8.95;2.35;;;;;;;;;;6196791;28;20050;-82
2022/02/07 04:07:23;;;;;;;13.10;2.80;;;;;;;;;;6196261;28;20050;-82
2022/02/07 04:10:26;;;;;;;7.05;2.15;;;;;;;;;;6229031;28;20507;-80
2022/02/07 04:13:33;;;;;;;7.05;2.10;;;;;;;;;;6231203;28;20267;-84
2022/02/07 04:16:40;;;;;;;6.32;2.10;;;;;;;;;;6233110;28;20481;-80
2022/02/07 04:19:55;;;;;;;8.80;2.28;;;;;;;;;;6248472;28;20099;-82
2022/02/07 04:22:58;;;;;;;8.15;2.10;;;;;;;;;;6245342;28;20088;-81
2022/02/07 04:26:32;;;;;;;10.10;2.35;;;;;;;;;;6216326;28;20049;-82
2022/02/07 04:29:37;;;;;;;7.97;2.25;;;;;;;;;;6241088;28;21308;-83
2022/02/07 04:32:40;;;;;;;7.85;2.13;;;;;;;;;;6224498;28;20053;-82
2022/02/07 04:35:43;;;;;;;17.67;3.58;;;;;;;;;;6219422;28;20054;-81
2022/02/07 04:38:45;;;;;;;10.80;2.25;;;;;;;;;;6216886;28;20052;-82
2022/02/07 04:41:51;;;;;;;;;;;;;;;;;;6203839;28;20042;-82
2022/02/07 04:48:20;;;;;;;4.50;1.48;;;;;;;;;;6216994;28;20054;-80
2022/02/07 04:55:12;;;;;;;5.97;2.20;;;;;;;;;;6176369;28;20048;-81
2022/02/07 05:04:32;;;;;;;6.43;2.05;;;;;;;;;;6236876;28;20539;-82
2022/02/07 05:14:11;;;;;;;4.57;2.15;;;;;;;;;;6229313;28;20448;-83
2022/02/07 05:17:15;;;;;;;4.88;1.50;;;;;;;;;;6205287;28;20177;-82
2022/02/07 05:20:44;;;;;;;4.60;1.58;;;;;;;;;;6223617;28;20068;-83
2022/02/07 05:23:53;;;;;;;8.38;1.80;;;;;;;;;;6219563;28;20057;-83
2022/02/07 05:27:14;;;;;;;2.42;1.42;;;;;;;;;;6221197;28;20515;-81
2022/02/07 05:30:38;;;;;;;4.13;1.50;;;;;;;;;;6220151;28;20073;-83
2022/02/07 05:33:59;;;;;;;3.10;1.63;;;;;;;;;;6244679;28;20037;-82
2022/02/07 05:37:20;;;;;;;4.72;1.77;;;;;;;;;;6245412;28;20083;-81
2022/02/07 05:40:43;;;;;;;8.77;2.00;;;;;;;;;;6234867;28;20046;-83
2022/02/07 05:44:03;;;;;;;10.93;2.08;;;;;;;;;;6236397;28;20050;-81
2022/02/07 05:47:35;;;;;;;4.72;2.40;;;;;;;;;;6233787;28;20046;-83
2022/02/07 05:50:49;;;;;;;4.38;1.73;;;;;;;;;;6233635;28;20038;-86
2022/02/07 05:53:56;;;;;;;13.10;2.97;;;;;;;;;;6225698;28;20392;-82
2022/02/07 05:57:21;;;;;;;11.18;2.30;;;;;;;;;;6240599;28;20068;-84
2022/02/07 06:00:32;;;;;;;7.30;2.53;;;;;;;;;;6241670;28;20046;-83
2022/02/07 06:03:42;;;;;;;10.30;2.30;;;;;;;;;;6229066;28;20033;-84
2022/02/07 06:06:47;;;;;;;6.38;2.25;;;;;;;;;;6227100;28;20525;-84
2022/02/07 06:09:49;;;;;;;10.35;3.17;;;;;;;;;;6242293;28;20069;-86
2022/02/07 06:12:51;;;;;;;7.90;2.50;;;;;;;;;;6232348;28;20046;-84
2022/02/07 06:15:54;;;;;;;10.98;2.88;;;;;;;;;;6239494;28;20101;-85
2022/02/07 06:19:01;;;;;;;9.65;2.13;;;;;;;;;;6233880;28;20419;-84
2022/02/07 06:22:07;;;;;;;13.48;1.92;;;;;;;;;;6218740;28;20034;-84
2022/02/07 06:25:12;;;;;;;5.55;2.13;;;;;;;;;;6205387;28;20042;-84
2022/02/07 06:28:15;;;;;;;5.68;2.05;;;;;;;;;;6219528;28;20535;-84
2022/02/07 06:31:21;;;;;;;16.95;2.50;;;;;;;;;;6202586;28;20046;-85
2022/02/07 06:34:23;;;;;;;3.97;1.58;;;;;;;;;;6203017;28;20112;-83
2022/02/07 06:37:27;;;;;;;8.57;2.15;;;;;;;;;;6242028;28;20127;-85
2022/02/07 06:40:29;;;;;;;9.60;2.75;;;;;;;;;;6220233;28;20148;-83
2022/02/07 06:43:30;;;;;;;6.85;2.28;;;;;;;;;;6209697;28;20126;-84
2022/02/07 06:46:33;;;;;;;6.43;2.17;;;;;;;;;;6239950;28;20555;-83
2022/02/07 06:49:35;;;;;;;5.77;1.80;;;;;;;;;;6223904;28;20052;-84
2022/02/07 06:52:37;;;;;;;6.10;2.45;;;;;;;;;;6238600;28;20049;-83
2022/02/07 06:55:40;;;;;;;11.20;2.47;;;;;;;;;;6230277;28;20176;-85
2022/02/07 06:58:43;;;;;;;14.63;2.83;;;;;;;;;;6231149;28;20061;-82
2022/02/07 07:01:45;;;;;;;11.50;2.47;;;;;;;;;;6215558;28;20542;-82
2022/02/07 07:04:49;;;;;;;5.78;2.15;;;;;;;;;;6199642;28;20053;-83
2022/02/07 07:07:51;;;;;;;6.15;2.47;;;;;;;;;;6210435;28;20050;-83
2022/02/07 07:10:57;;;;;;;10.15;2.78;;;;;;;;;;6216064;28;20058;-83
2022/02/07 07:14:13;;;;;;;10.05;2.63;;;;;;;;;;6215069;28;20041;-82
2022/02/07 07:17:16;;;;;;;8.15;2.90;;;;;;;;;;6220689;28;20072;-84
2022/02/07 07:20:21;;;;;;;7.38;3.35;;;;;;;;;;6211892;28;20037;-83
2022/02/07 07:23:24;;;;;;;9.52;3.17;;;;;;;;;;6195895;28;20053;-83
2022/02/07 07:26:31;;;;;;;8.00;2.85;;;;;;;;;;6227935;28;20050;-81
2022/02/07 07:29:40;;;;;;;6.18;2.97;;;;;;;;;;6188826;28;20077;-81
2022/02/07 07:32:42;;;;;;;10.57;2.78;;;;;;;;;;6208984;28;20137;-81
2022/02/07 07:35:44;;;;;;;19.02;6.03;;;;;;;;;;6213035;28;20049;-81
2022/02/07 07:38:47;;;;;;;46.35;20.30;;;;;;;;;;6207402;28;20042;-83
2022/02/07 07:41:52;;;;;;;12.05;4.28;;;;;;;;;;6207320;28;20072;-84
2022/02/07 07:44:59;;;;;;;13.52;6.65;;;;;;;;;;6208893;28;20153;-82
2022/02/07 07:48:13;;;;;;;5.57;2.92;;;;;;;;;;6220828;28;20061;-84
2022/02/07 07:52:09;;;;;;;7.38;2.45;;;;;;;;;;6209079;28;20069;-84
2022/02/07 08:01:59;;;;;;;6.10;3.15;;;;;;;;;;6228084;28;20124;-83
2022/02/07 08:05:08;;;;;;;13.32;4.57;;;;;;;;;;6228066;28;20050;-86
2022/02/07 08:08:22;;;;;;;13.13;4.53;;;;;;;;;;6219755;28;20550;-83
2022/02/07 08:11:24;;;;;;;10.25;3.72;;;;;;;;;;6225464;28;20052;-85
2022/02/07 08:14:36;;;;;;;10.43;3.78;;;;;;;;;;6245194;28;20045;-82
2022/02/07 08:17:57;;;;;;;12.32;3.60;;;;;;;;;;6246789;28;20041;-84
2022/02/07 08:20:59;;;;;;;12.93;4.35;;;;;;;;;;6245757;28;20088;-86
2022/02/07 08:24:01;;;;;;;5.75;2.38;;;;;;;;;;6244412;28;20056;-85
2022/02/07 08:27:05;;;;;;;3.17;2.13;;;;;;;;;;6222469;28;20302;-84
2022/02/07 08:30:07;;;;;;;4.90;2.38;;;;;;;;;;6214779;28;20106;-87
2022/02/07 08:33:10;;;;;;;4.93;2.00;;;;;;;;;;6221302;28;20048;-84
2022/02/07 08:36:11;;;;;;;6.50;3.28;;;;;;;;;;6222756;28;20125;-84
2022/02/07 08:39:13;;;;;;;10.90;2.92;;;;;;;;;;6236598;28;20406;-86
2022/02/07 08:42:15;;;;;;;8.45;3.22;;;;;;;;;;6238752;28;20236;-83
2022/02/07 08:45:17;;;;;;;7.05;2.92;;;;;;;;;;6224126;28;20101;-83
2022/02/07 08:48:19;;;;;;;13.25;3.72;;;;;;;;;;6210264;28;20108;-82
2022/02/07 08:51:21;;;;;;;9.30;3.38;;;;;;;;;;6213839;28;20041;-82
2022/02/07 08:54:26;;;;;;;9.43;3.78;;;;;;;;;;6241035;28;20120;-83
2022/02/07 08:57:37;;;;;;;7.05;2.80;;;;;;;;;;6235505;28;20662;-83
2022/02/07 09:07:02;;;;;;;8.68;3.20;;;;;;;;;;6236287;28;20042;-84
2022/02/07 09:10:04;;;;;;;8.60;3.25;;;;;;;;;;6234034;28;20184;-83
2022/02/07 09:13:06;;;;;;;13.20;3.35;;;;;;;;;;6250197;28;20125;-82
2022/02/07 09:19:16;;;;;;;12.05;3.40;;;;;;;;;;6208568;28;20094;-82
2022/02/07 09:22:17;;;;;;;14.93;3.50;;;;;;;;;;6214556;28;20124;-83
2022/02/07 09:25:19;;;;;;;15.15;3.33;;;;;;;;;;6211824;28;20041;-81
2022/02/07 09:28:21;;;;;;;8.30;3.13;;;;;;;;;;6220310;28;20045;-81
2022/02/07 09:31:27;;;;;;;10.63;3.20;;;;;;;;;;6215630;28;20070;-84
2022/02/07 09:34:29;;;;;;;11.98;3.50;;;;;;;;;;6212746;28;20129;-84
2022/02/07 09:37:30;;;;;;;7.20;3.17;;;;;;;;;;6208953;28;20060;-83
2022/02/07 09:40:32;;;;;;;12.45;3.20;;;;;;;;;;6251352;28;20049;-79
2022/02/07 09:43:41;;;;;;;8.10;3.38;;;;;;;;;;6224658;28;20044;-80
2022/02/07 09:46:46;;;;;;;13.50;3.60;;;;;;;;;;6250060;28;20048;-84
2022/02/07 09:49:47;;;;;;;14.05;3.42;;;;;;;;;;6252631;28;20061;-84
2022/02/07 09:52:49;;;;;;;10.23;3.67;;;;;;;;;;6252088;28;20069;-80
2022/02/07 09:55:51;;;;;;;23.23;3.63;;;;;;;;;;6244451;28;20110;-80
2022/02/07 09:58:54;;;;;;;12.07;3.33;;;;;;;;;;6236828;28;20051;-82
2022/02/07 10:01:59;;;;;;;11.23;3.10;;;;;;;;;;6230917;28;20109;-80
2022/02/07 10:05:06;;;;;;;11.15;3.40;;;;;;;;;;6225280;28;20045;-83
2022/02/07 10:08:14;;;;;;;16.33;4.05;;;;;;;;;;6220876;28;20045;-83
2022/02/07 10:14:47;;;;;;;12.90;3.22;;;;;;;;;;6235465;28;20038;-80
2022/02/07 10:38:11;;;;;;;9.77;3.83;;;;;;;;;;6215082;28;20072;-84
2022/02/07 10:41:39;;;;;;;14.52;3.75;;;;;;;;;;6230881;28;20041;-85
2022/02/07 10:44:49;;;;;;;9.05;4.10;;;;;;;;;;6241436;28;20052;-85
2022/02/07 10:47:52;;;;;;;17.70;3.95;;;;;;;;;;6238618;28;20077;-84
2022/02/07 10:51:25;;;;;;;12.10;3.95;;;;;;;;;;6241680;28;20040;-84
2022/02/07 10:54:27;;;;;;;9.35;3.72;;;;;;;;;;6232819;28;20053;-84
2022/02/07 10:57:29;;;;;;;10.30;3.57;;;;;;;;;;6218066;28;20498;-81
2022/02/07 11:00:39;;;;;;;15.15;4.28;;;;;;;;;;6217388;28;20128;-84
2022/02/07 11:03:45;;;;;;;14.65;4.10;;;;;;;;;;6233224;28;20045;-83
2022/02/07 11:06:51;;;;;;;11.73;3.67;;;;;;;;;;6216196;28;20133;-83
2022/02/07 11:10:18;;;;;;;11.65;3.55;;;;;;;;;;6200566;28;20045;-83
2022/02/07 11:20:02;;;;;;;14.40;3.75;;;;;;;;;;6241589;28;20049;-83
2022/02/07 11:23:35;;;;;;;10.88;3.72;;;;;;;;;;6246635;28;20121;-82
2022/02/07 11:26:48;;;;;;;10.45;2.75;;;;;;;;;;6222458;28;20044;-82
2022/02/07 11:29:50;;;;;;;9.77;3.50;;;;;;;;;;6220685;28;20046;-81
2022/02/07 11:32:55;;;;;;;8.07;2.78;;;;;;;;;;6223156;28;20049;-80
2022/02/07 11:35:57;;;;;;;9.60;3.10;;;;;;;;;;6237107;28;20042;-82
2022/02/07 11:39:04;;;;;;;12.30;3.27;;;;;;;;;;6226013;28;20041;-82
2022/02/07 11:42:11;;;;;;;10.27;3.20;;;;;;;;;;6262414;28;20175;-81
2022/02/07 11:45:13;;;;;;;8.15;2.15;;;;;;;;;;6246975;28;20056;-83
2022/02/07 11:48:18;;;;;;;7.90;2.92;;;;;;;;;;6244887;28;20114;-81
2022/02/07 11:51:33;;;;;;;8.80;2.20;;;;;;;;;;6244849;28;20120;-79
2022/02/07 11:54:36;;;;;;;15.13;3.13;;;;;;;;;;6242644;28;20041;-80
2022/02/07 11:57:41;;;;;;;9.70;2.38;;;;;;;;;;6236252;28;20077;-80
2022/02/07 12:00:48;;;;;;;12.60;2.38;;;;;;;;;;6223026;28;20047;-81
2022/02/07 12:03:53;;;;;;;7.40;2.60;;;;;;;;;;6221120;28;20053;-80
2022/02/07 12:07:07;;;;;;;8.43;2.13;;;;;;;;;;6242979;28;20064;-80
2022/02/07 12:10:27;;;;;;;;;;;;;;;;;;6232284;28;20124;-80
2022/02/07 12:13:35;;;;;;;5.32;2.05;;;;;;;;;;6216639;28;20063;-82
2022/02/07 12:16:45;;;;;;;6.88;2.33;;;;;;;;;;6217722;28;20403;-82
2022/02/07 12:19:48;;;;;;;7.40;2.40;;;;;;;;;;6235956;28;20033;-82
2022/02/07 12:22:58;;;;;;;12.40;2.58;;;;;;;;;;6239197;28;20049;-81
2022/02/07 12:26:04;;;;;;;12.85;2.65;;;;;;;;;;6227103;28;20042;-82
2022/02/07 12:29:14;;;;;;;6.97;2.85;;;;;;;;;;6218189;28;20046;-82
2022/02/07 12:32:16;;;;;;;8.25;2.45;;;;;;;;;;6235272;28;20091;-81
2022/02/07 12:35:17;;;;;;;8.85;2.25;;;;;;;;;;6252581;28;20141;-81
2022/02/07 12:38:21;;;;;;;7.15;2.72;;;;;;;;;;6245070;28;20710;-81
2022/02/07 12:41:24;;;;;;;9.07;2.30;;;;;;;;;;6244295;28;20065;-81
2022/02/07 12:44:27;;;;;;;9.15;2.50;;;;;;;;;;6219940;28;20141;-84
2022/02/07 12:47:32;;;;;;;10.35;2.60;;;;;;;;;;6228404;28;20054;-81
2022/02/07 12:50:34;;;;;;;9.90;2.28;;;;;;;;;;6229300;28;20049;-81
2022/02/07 12:53:36;;;;;;;9.02;2.60;;;;;;;;;;6235168;28;20069;-79
2022/02/07 12:56:39;;;;;;;12.73;3.55;;;;;;;;;;6229419;28;20057;-81
2022/02/07 12:59:51;;;;;;;11.90;2.63;;;;;;;;;;6230685;28;20398;-79
2022/02/07 13:02:52;;;;;;;9.57;2.58;;;;;;;;;;6228851;28;20054;-81
2022/02/07 13:05:54;;;;;;;8.82;2.25;;;;;;;;;;6233971;28;20042;-80
2022/02/07 13:08:58;;;;;;;8.77;2.25;;;;;;;;;;6230778;28;20038;-81
2022/02/07 13:12:14;;;;;;;9.20;2.28;;;;;;;;;;6229820;28;20057;-82
2022/02/07 13:15:34;;;;;;;9.50;2.60;;;;;;;;;;6283094;27;20628;-81
2022/02/07 13:18:39;;;;;;;9.05;2.50;;;;;;;;;;6293658;28;20060;-82
2022/02/07 13:21:44;;;;;;;8.88;2.20;;;;;;;;;;6314779;28;20112;-82
2022/02/07 13:24:46;;;;;;;8.02;2.50;;;;;;;;;;6288097;28;20065;-82
2022/02/07 13:27:48;;;;;;;9.48;2.40;;;;;;;;;;6265381;28;20748;-83
2022/02/07 13:31:01;;;;;;;11.43;2.08;;;;;;;;;;6262768;28;20053;-84
2022/02/07 13:34:03;;;;;;;9.30;2.50;;;;;;;;;;6264093;28;20421;-85
2022/02/07 13:37:21;;;;;;;5.43;2.92;;;;;;;;;;6262991;28;20044;-83
2022/02/07 13:40:24;;;;;;;13.13;2.58;;;;;;;;;;6279451;28;20553;-85
2022/02/07 13:43:30;;;;;;;5.15;2.60;;;;;;;;;;6287042;28;20037;-84
2022/02/07 13:46:33;;;;;;;7.93;2.67;;;;;;;;;;6297171;28;20040;-84
2022/02/07 13:49:52;;;;;;;10.05;2.45;;;;;;;;;;6315959;28;20047;-85
2022/02/07 13:52:58;;;;;;;10.60;3.17;;;;;;;;;;6303214;28;20033;-85
2022/02/07 13:56:00;;;;;;;10.70;2.60;;;;;;;;;;6261860;28;20105;-86
2022/02/07 13:59:14;;;;;;;8.93;2.70;;;;;;;;;;6273349;28;20047;-84
2022/02/07 14:02:29;;;;;;;9.65;2.90;;;;;;;;;;6231273;28;20575;-86
2022/02/07 14:05:33;;;;;;;10.30;3.00;;;;;;;;;;6264127;28;20103;-86
2022/02/07 14:08:39;;;;;;;11.40;3.35;;;;;;;;;;6278419;28;20049;-87
2022/02/07 14:11:43;;;;;;;13.52;2.95;;;;;;;;;;6261723;28;20464;-87
2022/02/07 14:14:44;;;;;;;;;;;;;;;;;;6262678;28;20055;-82
2022/02/07 14:17:47;;;;;;;11.30;2.95;;;;;;;;;;6267615;28;20437;-85
2022/02/07 14:20:49;;;;;;;6.57;3.00;;;;;;;;;;6286494;28;20446;-84
2022/02/07 14:23:54;;;;;;;6.00;2.63;;;;;;;;;;6268502;28;20139;-83
2022/02/07 14:27:15;;;;;;;7.72;3.10;;;;;;;;;;6247232;28;20050;-83
2022/02/07 14:30:17;;;;;;;9.65;2.70;;;;;;;;;;6243891;28;20693;-86
2022/02/07 14:33:19;;;;;;;9.45;3.20;;;;;;;;;;6270114;28;20037;-84
2022/02/07 14:36:21;;;;;;;11.60;2.97;;;;;;;;;;6271297;28;20127;-85
2022/02/07 14:39:23;;;;;;;10.97;2.67;;;;;;;;;;6270656;28;20108;-84
2022/02/07 14:42:25;;;;;;;6.95;2.05;;;;;;;;;;6250653;28;20401;-85
2022/02/07 14:45:31;;;;;;;10.07;1.85;;;;;;;;;;6246315;28;20041;-85
2022/02/07 14:48:36;;;;;;;4.68;1.70;;;;;;;;;;6295430;28;20114;-82
2022/02/07 14:51:37;;;;;;;3.90;1.60;;;;;;;;;;6295791;28;20062;-83
2022/02/07 14:54:39;;;;;;;4.07;1.67;;;;;;;;;;6288308;28;20121;-84
2022/02/07 14:57:40;;;;;;;6.10;2.00;;;;;;;;;;6245623;28;20037;-84
2022/02/07 15:00:42;;;;;;;8.15;1.98;;;;;;;;;;6245396;28;20056;-87
2022/02/07 15:03:46;;;;;;;5.95;1.75;;;;;;;;;;6267223;28;20072;-84
2022/02/07 15:06:48;;;;;;;6.07;2.28;;;;;;;;;;6246206;28;20065;-86
2022/02/07 15:09:50;;;;;;;3.53;1.80;;;;;;;;;;6262362;28;20091;-84
2022/02/07 15:12:52;;;;;;;5.47;2.00;;;;;;;;;;6268555;28;20052;-85
2022/02/07 15:15:53;;;;;;;4.15;1.42;;;;;;;;;;6263946;28;20329;-85
2022/02/07 15:18:55;;;;;;;2.88;1.40;;;;;;;;;;6266663;28;20041;-81
2022/02/07 15:21:57;;;;;;;8.38;1.60;;;;;;;;;;6259106;28;20605;-82
2022/02/07 15:25:02;;;;;;;7.85;1.70;;;;;;;;;;6264104;28;20038;-83
2022/02/07 15:28:07;;;;;;;6.60;1.90;;;;;;;;;;6278014;28;20072;-85
2022/02/07 15:31:08;;;;;;;7.13;2.13;;;;;;;;;;6261730;28;20051;-84
2022/02/07 15:34:10;;;;;;;7.68;2.08;;;;;;;;;;6243182;28;20048;-85
2022/02/07 15:37:18;;;;;;;4.75;1.88;;;;;;;;;;6243084;28;20243;-85
2022/02/07 15:40:20;;;;;;;7.55;1.70;;;;;;;;;;6288195;28;20132;-83
2022/02/07 15:43:22;;;;;;;7.53;2.13;;;;;;;;;;6244484;28;20041;-84
2022/02/07 15:46:24;;;;;;;10.45;2.40;;;;;;;;;;6276527;28;20179;-85
2022/02/07 15:49:25;;;;;;;8.57;2.33;;;;;;;;;;6270132;28;20043;-85
2022/02/07 15:52:27;;;;;;;11.00;2.58;;;;;;;;;;6266701;28;20128;-85
2022/02/07 15:55:29;;;;;;;7.32;2.33;;;;;;;;;;6265428;28;20040;-83
2022/02/07 15:58:31;;;;;;;8.50;2.60;;;;;;;;;;6274944;28;20504;-81
2022/02/07 16:01:33;;;;;;;7.20;2.25;;;;;;;;;;6265543;28;20041;-85
2022/02/07 16:04:37;;;;;;;6.88;2.38;;;;;;;;;;6266321;28;20051;-84
2022/02/07 16:07:39;;;;;;;4.75;2.83;;;;;;;;;;6224589;28;20041;-83
2022/02/07 16:10:41;;;;;;;7.03;3.03;;;;;;;;;;6245293;28;20041;-85
2022/02/07 16:13:51;;;;;;;12.38;3.40;;;;;;;;;;6243076;28;20136;-87
2022/02/07 16:16:53;;;;;;;7.63;3.10;;;;;;;;;;6254956;28;20048;-86
2022/02/07 16:19:56;;;;;;;13.70;4.00;;;;;;;;;;6281558;28;20071;-87
2022/02/07 16:22:58;;;;;;;6.47;3.15;;;;;;;;;;6255421;28;20065;-85
2022/02/07 16:26:01;;;;;;;7.88;3.03;;;;;;;;;;6248109;28;20052;-85
2022/02/07 16:29:03;;;;;;;;;;;;;;;;;;6272353;28;20133;-85
2022/02/07 16:32:05;;;;;;;6.05;2.63;;;;;;;;;;6269179;28;19927;-84
2022/02/07 16:35:07;;;;;;;8.90;3.33;;;;;;;;;;6269108;28;20124;-84
2022/02/07 16:38:09;;;;;;;7.13;3.10;;;;;;;;;;6266529;28;20063;-84
2022/02/07 16:41:12;;;;;;;7.57;2.75;;;;;;;;;;6266817;28;20052;-83
2022/02/07 16:44:14;;;;;;;;;;;;;;;;;;6267122;28;20044;-83
2022/02/07 16:47:16;;;;;;;6.82;2.92;;;;;;;;;;6265390;28;19921;-85
2022/02/07 16:50:18;;;;;;;7.18;2.50;;;;;;;;;;6249082;28;20044;-85
2022/02/07 16:53:20;;;;;;;12.52;3.10;;;;;;;;;;6267236;28;20044;-84
2022/02/07 16:56:22;;;;;;;8.90;3.17;;;;;;;;;;6259364;28;20084;-84
2022/02/07 16:59:25;;;;;;;7.53;2.70;;;;;;;;;;6266664;28;20409;-84
2022/02/07 17:02:27;;;;;;;9.68;3.22;;;;;;;;;;6265452;28;20049;-82
2022/02/07 17:05:29;;;;;;;15.27;4.50;;;;;;;;;;6265123;28;20044;-81
2022/02/07 17:08:31;;;;;;;9.30;3.28;;;;;;;;;;6264905;28;20037;-84
2022/02/07 17:11:33;;;;;;;6.40;2.50;;;;;;;;;;6242964;28;20052;-84
2022/02/07 17:14:35;;;;;;;9.10;2.78;;;;;;;;;;6242379;28;20077;-83
2022/02/07 17:17:36;;;;;;;5.55;2.47;;;;;;;;;;6263712;28;20512;-84
2022/02/07 17:20:38;;;;;;;7.47;2.70;;;;;;;;;;6267313;28;20033;-83
2022/02/07 17:23:39;;;;;;;5.68;2.38;;;;;;;;;;6264802;28;20570;-83
2022/02/07 17:26:41;;;;;;;8.02;2.60;;;;;;;;;;6250244;28;20076;-83
2022/02/07 17:29:43;;;;;;;9.20;2.47;;;;;;;;;;6260604;28;20052;-84
2022/02/07 17:32:45;;;;;;;9.60;2.70;;;;;;;;;;6253127;28;20049;-83
2022/02/07 17:35:48;;;;;;;4.57;2.35;;;;;;;;;;6237882;28;20562;-81
2022/02/07 17:38:50;;;;;;;9.63;2.40;;;;;;;;;;6279476;28;20048;-83
2022/02/07 17:41:52;;;;;;;8.60;2.57;;;;;;;;;;6270598;28;20108;-84
2022/02/07 17:44:53;;;;;;;9.35;2.85;;;;;;;;;;6265750;28;20041;-83
2022/02/07 17:47:56;;;;;;;7.05;2.38;;;;;;;;;;6267220;28;20053;-84
2022/02/07 17:50:58;;;;;;;4.47;2.55;;;;;;;;;;6261806;28;20398;-85
2022/02/07 17:54:02;;;;;;;16.27;4.05;;;;;;;;;;6262268;28;20041;-83
2022/02/07 17:57:04;;;;;;;13.45;4.05;;;;;;;;;;6265859;28;20500;-83
2022/02/07 18:00:10;;;;;;;8.25;2.45;;;;;;;;;;6288299;28;20125;-83
2022/02/07 18:03:12;;;;;;;5.97;2.28;;;;;;;;;;6252432;28;20056;-84
2022/02/07 18:06:16;;;;;;;5.85;2.00;;;;;;;;;;6265770;28;20037;-84
2022/02/07 18:09:17;;;;;;;7.32;2.30;;;;;;;;;;6289542;28;20123;-84
2022/02/07 18:12:19;;;;;;;6.13;1.65;;;;;;;;;;6259730;28;20052;-84
2022/02/07 18:15:21;;;;;;;8.73;2.33;;;;;;;;;;6240325;28;20044;-84
2022/02/07 18:18:23;;;;;;;10.38;1.92;;;;;;;;;;6268770;28;20082;-82
2022/02/07 18:21:37;;;;;;;5.65;1.80;;;;;;;;;;6264641;28;20494;-84
2022/02/07 18:24:39;;;;;;;4.72;2.00;;;;;;;;;;6267437;28;20052;-83
2022/02/07 18:27:40;;;;;;;5.63;2.40;;;;;;;;;;6264780;28;20052;-83
2022/02/07 18:30:43;;;;;;;8.98;1.90;;;;;;;;;;6280506;28;20365;-83
2022/02/07 18:33:45;;;;;;;5.82;2.33;;;;;;;;;;6256227;28;20160;-82
2022/02/07 18:36:49;;;;;;;7.70;2.20;;;;;;;;;;6246891;28;20047;-83
2022/02/07 18:39:50;;;;;;;3.80;1.85;;;;;;;;;;6264732;28;20048;-85
2022/02/07 18:42:54;;;;;;;8.48;2.10;;;;;;;;;;6266724;28;20051;-83
2022/02/07 18:45:56;;;;;;;4.00;1.85;;;;;;;;;;6286079;28;20131;-83
2022/02/07 18:48:58;;;;;;;4.05;2.03;;;;;;;;;;6293248;28;20041;-83
2022/02/07 18:51:59;;;;;;;4.63;1.90;;;;;;;;;;6287317;28;20064;-84
2022/02/07 18:55:02;;;;;;;4.65;1.88;;;;;;;;;;6245810;28;20041;-82
2022/02/07 19:01:41;;;;;;;7.00;1.92;;;;;;;;;;6267525;28;22579;-83
2022/02/07 19:07:48;;;;;;;8.35;2.83;;;;;;;;;;6266988;28;20045;-83
2022/02/07 19:10:50;;;;;;;5.47;2.50;;;;;;;;;;6260188;28;20049;-80
2022/02/07 19:13:53;;;;;;;6.93;2.15;;;;;;;;;;6255242;28;20067;-82
2022/02/07 19:16:56;;;;;;;9.68;2.30;;;;;;;;;;6256434;28;20041;-82
2022/02/07 19:19:58;;;;;;;5.25;1.80;;;;;;;;;;6262955;28;20033;-82
2022/02/07 19:23:00;;;;;;;6.57;1.85;;;;;;;;;;6260506;28;20498;-83
2022/02/07 19:26:12;;;;;;;6.38;1.70;;;;;;;;;;6255528;28;20041;-83
2022/02/07 19:29:20;;;;;;;8.93;1.70;;;;;;;;;;6256005;28;20046;-83
2022/02/07 19:32:27;;;;;;;8.40;1.67;;;;;;;;;;6256681;28;20041;-84
2022/02/07 19:35:36;;;;;;;4.90;2.08;;;;;;;;;;6269934;28;20097;-84
2022/02/07 19:38:39;;;;;;;4.75;1.27;;;;;;;;;;6267303;28;22341;-84
2022/02/07 19:41:56;;;;;;;9.77;1.58;;;;;;;;;;6240167;28;20045;-84
2022/02/07 19:45:03;;;;;;;5.90;1.30;;;;;;;;;;6259118;28;20052;-83
2022/02/07 19:48:08;;;;;;;4.97;1.33;;;;;;;;;;6254763;28;20053;-82
2022/02/07 19:51:09;;;;;;;5.80;1.65;;;;;;;;;;6243006;28;20064;-84
2022/02/07 19:54:11;;;;;;;5.53;1.45;;;;;;;;;;6242096;28;20041;-82
2022/02/07 19:57:13;;;;;;;3.28;1.33;;;;;;;;;;6241445;28;20125;-82
2022/02/07 20:00:17;;;;;;;5.90;1.88;;;;;;;;;;6239392;28;20056;-84
2022/02/07 20:03:22;;;;;;;11.57;1.65;;;;;;;;;;6240372;28;20042;-84
2022/02/07 20:06:23;;;;;;;2.67;1.25;;;;;;;;;;6241488;28;20049;-84
2022/02/07 20:09:25;;;;;;;4.05;1.88;;;;;;;;;;6242055;28;20045;-83
2022/02/07 20:12:28;;;;;;;6.00;1.25;;;;;;;;;;6241448;28;20061;-81
2022/02/07 20:15:32;;;;;;;3.77;1.63;;;;;;;;;;6241740;28;20679;-84
2022/02/07 20:18:33;;;;;;;7.70;1.83;;;;;;;;;;6266316;28;20037;-83
2022/02/07 20:21:35;;;;;;;2.97;1.20;;;;;;;;;;6264996;28;20041;-84
2022/02/07 20:24:39;;;;;;;8.27;1.98;;;;;;;;;;6263562;28;20501;-84
2022/02/07 20:27:41;;;;;;;5.55;1.80;;;;;;;;;;6266683;28;20118;-82
2022/02/07 20:30:44;;;;;;;5.10;1.30;;;;;;;;;;6261348;28;20057;-84
2022/02/07 20:34:12;;;;;;;5.55;1.88;;;;;;;;;;6241251;28;20498;-83
2022/02/07 20:37:13;;;;;;;2.53;1.35;;;;;;;;;;6256631;28;20628;-83
2022/02/07 20:40:15;;;;;;;6.45;1.60;;;;;;;;;;6243356;28;20125;-81
2022/02/07 20:43:17;;;;;;;3.90;1.33;;;;;;;;;;6245157;28;20502;-81
2022/02/07 20:46:23;;;;;;;4.43;1.58;;;;;;;;;;6260464;28;20083;-83
2022/02/07 20:49:31;;;;;;;4.78;2.35;;;;;;;;;;6237188;28;20041;-84
2022/02/07 20:52:32;;;;;;;4.20;1.63;;;;;;;;;;6254870;28;20129;-80
2022/02/07 20:55:35;;;;;;;4.13;1.55;;;;;;;;;;6256125;28;20072;-83